createdAt,value
2023-04-14T03:10:28.221Z,86.83
2023-04-14T03:13:00.646Z,85.33
2023-04-14T03:15:27.870Z,84.88
2023-04-14T03:17:57.237Z,84.14
2023-04-14T03:20:27.247Z,83.56
2023-04-14T03:22:58.634Z,83.44
2023-04-14T03:25:30.999Z,83.36
2023-04-14T03:28:02.050Z,83.27
2023-04-14T03:30:31.245Z,83.72
2023-04-14T03:33:08.847Z,83.22
2023-04-14T03:35:37.073Z,83.03
2023-04-14T03:38:07.742Z,82.97
2023-04-14T03:40:41.408Z,82.99
2023-04-14T03:43:12.495Z,83.01
2023-04-14T03:48:23.826Z,83.08
2023-04-14T03:50:52.145Z,83.41
2023-04-14T03:53:20.864Z,83.63
2023-04-14T03:55:54.633Z,83.24
2023-04-14T03:58:21.944Z,83.32
2023-04-14T04:00:51.544Z,83.83
2023-04-14T04:03:21.093Z,84.13
2023-04-14T04:05:49.197Z,84.48
2023-04-14T04:08:16.606Z,84.35
2023-04-14T04:10:46.514Z,84.18
2023-04-14T04:13:20.664Z,83.97
2023-04-14T04:15:49.118Z,84.00
2023-04-14T04:18:19.805Z,83.93
2023-04-14T04:20:48.537Z,83.30
2023-04-14T04:23:22.641Z,83.41
2023-04-14T04:25:51.077Z,83.82
2023-04-14T04:28:24.034Z,83.70
2023-04-14T04:30:54.374Z,83.65
2023-04-14T04:33:25.212Z,83.72
2023-04-14T04:35:54.714Z,84.03
2023-04-14T04:38:23.784Z,84.19
2023-04-14T04:40:50.857Z,83.06
2023-04-14T04:43:26.694Z,82.68
2023-04-14T04:46:12.213Z,82.61
2023-04-14T04:48:38.812Z,82.70
2023-04-14T04:51:05.192Z,84.23
2023-04-14T04:53:31.550Z,85.26
2023-04-14T04:55:57.855Z,86.70
2023-04-14T04:58:24.118Z,86.52
2023-04-14T05:00:50.514Z,84.20
2023-04-14T05:03:16.873Z,83.29
2023-04-14T05:05:43.228Z,82.76
2023-04-14T05:08:10.405Z,83.30
2023-04-14T05:10:37.874Z,85.34
2023-04-14T05:13:04.172Z,86.81
2023-04-14T05:15:30.441Z,87.54
2023-04-14T05:17:56.714Z,88.00
2023-04-14T05:20:23.070Z,88.32
2023-04-14T05:22:49.430Z,88.67
2023-04-14T05:25:15.711Z,88.52
2023-04-14T05:27:41.952Z,88.86
2023-04-14T05:30:08.475Z,89.22
2023-04-14T05:32:35.031Z,89.37
2023-04-14T05:35:02.317Z,89.13
2023-04-14T05:37:28.606Z,88.82
2023-04-14T05:39:54.963Z,89.09
2023-04-14T05:42:21.227Z,89.10
2023-04-14T05:44:47.495Z,89.18
2023-04-14T05:47:13.921Z,89.26
2023-04-14T05:49:40.359Z,89.20
2023-04-14T05:52:06.614Z,89.26
2023-04-14T05:54:33.058Z,89.10
2023-04-14T05:56:59.301Z,88.96
2023-04-14T05:59:25.543Z,89.20
2023-04-14T06:01:52.107Z,88.94
2023-04-14T06:04:18.583Z,89.00
2023-04-14T06:06:45.026Z,88.64
2023-04-14T06:09:11.291Z,88.54
2023-04-14T06:11:37.530Z,88.31
2023-04-14T06:14:03.873Z,88.00
2023-04-14T06:16:30.264Z,87.49
2023-04-14T06:18:56.569Z,87.77
2023-04-14T06:21:22.839Z,87.48
2023-04-14T06:23:49.099Z,86.84
2023-04-14T06:26:15.375Z,86.33
2023-04-14T06:28:43.713Z,86.52
2023-04-14T06:31:10.366Z,86.24
2023-04-14T06:33:36.931Z,85.42
2023-04-14T06:36:03.337Z,85.21
2023-04-14T06:38:29.626Z,85.44
2023-04-14T06:40:55.895Z,84.67
2023-04-14T06:43:22.210Z,84.74
2023-04-14T06:45:48.612Z,84.74
2023-04-14T06:48:14.859Z,84.71
2023-04-14T06:50:42.691Z,84.66
2023-04-14T06:53:10.497Z,83.29
2023-04-14T06:55:39.693Z,81.93
2023-04-14T06:58:06.007Z,81.96
2023-04-14T07:00:32.310Z,81.41
2023-04-14T07:02:58.690Z,80.33
2023-04-14T07:05:25.206Z,79.36
2023-04-14T07:07:51.515Z,80.10
2023-04-14T07:10:17.848Z,80.42
2023-04-14T07:12:44.308Z,79.77
2023-04-14T07:15:10.805Z,79.61
2023-04-14T07:17:37.172Z,80.15
2023-04-14T07:20:03.715Z,78.72
2023-04-14T07:22:30.024Z,79.29
2023-04-14T07:24:56.292Z,78.67
2023-04-14T07:27:22.618Z,78.18
2023-04-14T07:29:49.324Z,78.54
2023-04-14T07:32:15.684Z,78.15
2023-04-14T07:34:42.052Z,77.75
2023-04-14T07:37:08.945Z,77.21
2023-04-14T07:39:35.491Z,77.85
2023-04-14T07:42:01.815Z,76.54
2023-04-14T07:44:28.514Z,75.08
2023-04-14T07:46:54.748Z,76.41
2023-04-14T07:49:21.023Z,74.27
2023-04-14T07:51:47.462Z,72.73
2023-04-14T07:54:13.723Z,73.93
2023-04-14T07:56:40.051Z,73.01
2023-04-14T07:59:06.775Z,71.91
2023-04-14T08:01:33.065Z,72.57
2023-04-14T08:03:59.575Z,73.02
2023-04-14T08:06:26.275Z,71.07
2023-04-14T08:08:52.569Z,72.90
2023-04-14T08:11:18.871Z,73.64
2023-04-14T08:13:45.890Z,68.47
2023-04-14T08:16:12.215Z,67.54
2023-04-14T08:18:39.614Z,67.34
2023-04-14T08:21:06.144Z,66.37
2023-04-14T08:23:32.918Z,66.84
2023-04-14T08:25:59.244Z,64.62
2023-04-14T08:28:27.350Z,63.44
2023-04-14T08:30:53.611Z,63.70
2023-04-14T08:33:20.044Z,63.55
2023-04-14T08:35:46.728Z,63.84
2023-04-14T08:38:24.384Z,65.65
2023-04-14T08:40:54.187Z,64.02
2023-04-14T08:43:20.510Z,62.57
2023-04-14T08:45:48.994Z,61.31
2023-04-14T08:48:18.766Z,61.96
2023-04-14T08:51:05.440Z,61.54
2023-04-14T08:53:35.977Z,61.30
2023-04-14T08:56:03.641Z,61.83
2023-04-14T08:58:32.642Z,61.21
2023-04-14T09:00:59.718Z,60.32
2023-04-14T09:03:26.498Z,61.35
2023-04-14T09:05:53.534Z,60.41
2023-04-14T09:08:20.542Z,60.13
2023-04-14T09:10:46.917Z,59.92
2023-04-14T09:13:15.589Z,60.62
2023-04-14T09:15:42.604Z,61.63
2023-04-14T09:18:10.044Z,59.40
2023-04-14T09:20:40.793Z,56.81
2023-04-14T09:23:08.711Z,57.31
2023-04-14T09:25:34.988Z,56.05
2023-04-14T09:28:01.331Z,55.67
2023-04-14T09:30:28.293Z,55.22
2023-04-14T09:32:54.582Z,54.80
2023-04-14T09:35:20.941Z,55.29
2023-04-14T09:37:47.829Z,54.45
2023-04-14T09:40:27.226Z,53.61
2023-04-14T09:42:55.178Z,53.60
2023-04-14T09:45:21.511Z,54.93
2023-04-14T09:47:48.355Z,53.81
2023-04-14T09:50:15.053Z,53.56
2023-04-14T09:52:42.168Z,52.92
2023-04-14T09:55:15.462Z,51.85
2023-04-14T09:57:45.813Z,51.71
2023-04-14T10:00:14.916Z,51.59
2023-04-14T10:02:51.816Z,50.80
2023-04-14T10:05:19.098Z,51.49
2023-04-14T10:07:45.579Z,51.90
2023-04-14T10:10:12.318Z,52.19
2023-04-14T10:12:42.323Z,51.80
2023-04-14T10:15:09.287Z,53.33
2023-04-14T10:17:35.966Z,53.68
2023-04-14T10:20:02.560Z,53.32
2023-04-14T10:22:29.251Z,53.13
2023-04-14T10:24:57.974Z,52.35
2023-04-14T10:27:30.211Z,51.04
2023-04-14T10:29:57.400Z,50.76
2023-04-14T10:32:25.877Z,50.02
2023-04-14T10:34:55.226Z,50.00
2023-04-14T10:37:21.538Z,48.77
2023-04-14T10:39:57.701Z,47.46
2023-04-14T10:42:24.558Z,47.37
2023-04-14T10:45:03.628Z,46.48
2023-04-14T10:47:30.353Z,47.09
2023-04-14T10:49:56.914Z,48.64
2023-04-14T10:52:26.514Z,49.13
2023-04-14T10:54:53.914Z,48.97
2023-04-14T10:57:24.082Z,49.55
2023-04-14T10:59:53.652Z,48.40
2023-04-14T11:02:30.977Z,49.11
2023-04-14T11:05:07.310Z,49.11
2023-04-14T11:07:38.213Z,48.07
2023-04-14T11:10:17.034Z,47.84
2023-04-14T11:12:43.763Z,49.36
2023-04-14T11:15:10.294Z,49.61
2023-04-14T11:17:37.346Z,49.57
2023-04-14T11:20:17.152Z,50.62
2023-04-14T11:22:44.656Z,51.35
2023-04-14T11:25:12.234Z,51.31
2023-04-14T11:27:39.053Z,51.84
2023-04-14T11:30:06.168Z,51.56
2023-04-14T11:32:52.327Z,51.73
2023-04-14T11:35:20.069Z,53.54
2023-04-14T11:38:00.570Z,52.99
2023-04-14T11:40:28.103Z,52.61
2023-04-14T11:42:55.953Z,52.28
2023-04-14T11:45:26.104Z,51.70
2023-04-14T11:48:04.471Z,51.39
2023-04-14T11:50:32.330Z,50.71
2023-04-14T11:52:59.328Z,51.20
2023-04-14T11:55:26.587Z,51.65
2023-04-14T11:57:53.840Z,50.66
2023-04-14T12:00:20.330Z,49.65
2023-04-14T12:02:46.838Z,47.87
2023-04-14T12:05:18.442Z,44.89
2023-04-14T12:07:44.757Z,43.11
2023-04-14T12:10:11.220Z,42.73
2023-04-14T12:12:38.066Z,43.16
2023-04-14T12:15:04.643Z,44.15
2023-04-14T12:17:31.128Z,45.98
2023-04-14T12:19:59.133Z,46.12
2023-04-14T12:22:26.420Z,46.72
2023-04-14T12:24:53.193Z,47.51
2023-04-14T12:27:21.536Z,48.37
2023-04-14T12:29:47.821Z,48.29
2023-04-14T12:32:14.267Z,49.39
2023-04-14T12:34:40.865Z,49.17
2023-04-14T12:37:11.210Z,48.83
2023-04-14T12:39:50.448Z,47.82
2023-04-14T12:42:16.862Z,47.54
2023-04-14T12:44:52.936Z,47.85
2023-04-14T12:47:34.444Z,45.47
2023-04-14T12:50:22.336Z,44.91
2023-04-14T12:52:51.702Z,44.81
2023-04-14T12:55:29.748Z,45.32
2023-04-14T12:58:05.903Z,44.92
2023-04-14T13:26:22.760Z,49.00
2023-04-14T13:28:49.054Z,49.06
2023-04-14T13:31:16.257Z,48.89
2023-04-14T13:33:42.789Z,49.30
2023-04-14T13:36:09.057Z,49.87
2023-04-14T13:38:35.374Z,49.82
2023-04-14T13:41:01.754Z,49.92
2023-04-14T13:43:28.229Z,50.27
2023-04-14T13:45:57.872Z,50.50
2023-04-14T13:48:24.370Z,50.34
2023-04-14T13:50:51.387Z,50.49
2023-04-14T13:53:17.751Z,51.34
2023-04-14T13:55:44.263Z,51.43
2023-04-14T13:58:10.603Z,51.66
2023-04-14T14:00:36.910Z,51.87
2023-04-14T14:03:03.408Z,51.84
2023-04-14T14:05:30.135Z,51.67
2023-04-14T14:07:56.452Z,51.89
2023-04-14T14:10:23.001Z,53.24
2023-04-14T14:12:49.775Z,51.92
2023-04-14T14:15:16.192Z,52.14
2023-04-14T14:17:42.594Z,52.82
2023-04-14T14:20:09.195Z,53.50
2023-04-14T14:22:35.542Z,52.46
2023-04-14T14:25:17.500Z,52.56
2023-04-14T14:27:44.742Z,52.35
2023-04-14T14:30:11.716Z,52.15
2023-04-14T14:32:38.035Z,51.93
2023-04-14T14:35:04.695Z,51.65
2023-04-14T14:37:30.979Z,51.73
2023-04-14T14:39:57.273Z,51.89
2023-04-14T14:42:23.763Z,52.20
2023-04-14T14:44:50.072Z,52.58
2023-04-14T14:47:16.357Z,53.16
2023-04-14T14:49:53.000Z,54.25
2023-04-14T14:52:33.214Z,54.63
2023-04-14T14:55:00.033Z,54.30
2023-04-14T14:57:26.431Z,53.64
2023-04-14T14:59:52.985Z,53.44
2023-04-14T15:02:19.823Z,53.25
2023-04-14T15:04:46.328Z,53.73
2023-04-14T15:07:12.863Z,53.35
2023-04-14T15:09:39.696Z,53.68
2023-04-14T15:12:06.146Z,53.22
2023-04-14T15:14:32.574Z,53.89
2023-04-14T15:16:58.987Z,53.88
2023-04-14T15:19:25.305Z,53.81
2023-04-14T15:21:51.855Z,53.16
2023-04-14T15:24:18.227Z,54.59
2023-04-14T15:26:44.536Z,54.53
2023-04-14T15:29:10.848Z,53.87
2023-04-14T15:31:37.451Z,53.89
2023-04-14T15:34:04.172Z,54.13
2023-04-14T15:39:42.280Z,53.84
2023-04-14T15:42:09.448Z,54.03
2023-04-14T15:44:42.144Z,53.78
2023-04-14T15:47:08.856Z,53.80
2023-04-14T15:49:38.824Z,53.51
2023-04-14T15:52:15.670Z,53.33
2023-04-14T15:54:45.681Z,53.55
2023-04-14T15:57:21.807Z,53.84
2023-04-14T16:00:05.781Z,53.78
2023-04-14T16:03:06.930Z,54.08
2023-04-14T16:05:33.824Z,54.17
2023-04-14T16:08:07.666Z,54.56
2023-04-14T16:10:38.071Z,54.41
2023-04-14T16:13:04.642Z,54.59
2023-04-14T16:15:31.194Z,54.76
2023-04-14T16:17:57.634Z,54.58
2023-04-14T16:20:24.256Z,54.84
2023-04-14T16:22:50.730Z,54.86
2023-04-14T16:25:17.239Z,54.95
2023-04-14T16:27:43.701Z,55.57
2023-04-14T16:30:10.436Z,55.27
2023-04-14T16:32:36.979Z,55.29
2023-04-14T16:35:03.630Z,55.20
2023-04-14T16:37:30.470Z,55.65
2023-04-14T16:40:01.362Z,55.49
2023-04-14T16:42:29.737Z,55.58
2023-04-14T16:44:56.201Z,55.51
2023-04-14T16:47:22.817Z,55.58
2023-04-14T16:49:49.554Z,55.72
2023-04-14T16:52:16.150Z,55.94
2023-04-14T16:54:42.874Z,56.07
2023-04-14T16:57:09.934Z,55.96
2023-04-14T16:59:36.547Z,56.25
2023-04-14T17:02:03.264Z,56.28
2023-04-14T17:04:30.069Z,56.36
2023-04-14T17:06:56.772Z,56.70
2023-04-14T17:09:23.503Z,56.84
2023-04-14T17:11:49.970Z,57.07
2023-04-14T17:14:16.429Z,57.95
2023-04-14T17:16:43.113Z,57.28
2023-04-14T17:19:09.754Z,57.46
2023-04-14T17:21:36.248Z,57.60
2023-04-14T17:24:03.040Z,57.75
2023-04-14T17:26:29.675Z,58.22
2023-04-14T17:28:56.183Z,58.49
2023-04-14T17:31:22.769Z,58.70
2023-04-14T17:33:49.474Z,58.54
2023-04-14T17:36:15.985Z,58.73
2023-04-14T17:38:42.894Z,58.71
2023-04-14T17:41:10.968Z,59.64
2023-04-14T17:43:38.653Z,59.49
2023-04-14T17:46:05.232Z,59.76
2023-04-14T17:48:31.938Z,60.03
2023-04-14T17:50:59.090Z,60.32
2023-04-14T17:53:25.765Z,61.30
2023-04-14T17:55:52.810Z,61.53
2023-04-14T17:58:19.901Z,62.21
2023-04-14T18:00:46.842Z,61.52
2023-04-14T18:03:14.584Z,62.35
2023-04-14T18:05:41.666Z,62.80
2023-04-14T18:08:08.278Z,62.29
2023-04-14T18:10:35.000Z,63.00
2023-04-14T18:13:01.545Z,64.03
2023-04-14T18:15:28.096Z,64.40
2023-04-14T18:17:54.912Z,65.27
2023-04-14T18:20:22.771Z,64.42
2023-04-14T18:22:49.415Z,65.32
2023-04-14T18:25:17.461Z,65.48
2023-04-14T18:30:38.627Z,68.17
2023-04-14T18:33:06.177Z,68.54
2023-04-14T18:35:41.778Z,69.51
2023-04-14T18:38:15.203Z,68.91
2023-04-14T18:40:46.917Z,69.08
2023-04-14T18:43:13.728Z,70.27
2023-04-14T18:45:43.754Z,72.03
2023-04-14T18:48:10.395Z,73.56
2023-04-14T18:50:36.911Z,74.45
2023-04-14T18:53:06.845Z,74.47
2023-04-14T18:55:43.322Z,75.55
2023-04-14T18:58:15.188Z,76.00
2023-04-14T19:00:43.755Z,76.11
2023-04-14T19:03:10.398Z,76.70
2023-04-14T19:05:46.664Z,76.81
2023-04-14T19:08:13.204Z,77.66
2023-04-14T19:10:42.431Z,77.60
2023-04-14T19:13:08.991Z,77.80
2023-04-14T19:15:35.589Z,77.89
2023-04-14T19:18:02.036Z,78.18
2023-04-14T19:20:28.391Z,78.16
2023-04-14T19:22:54.814Z,78.20
2023-04-14T19:25:21.236Z,77.91
2023-04-14T19:27:47.838Z,78.57
2023-04-14T19:30:14.752Z,78.00
2023-04-14T19:32:41.475Z,78.51
2023-04-14T19:35:11.759Z,78.25
2023-04-14T19:37:38.896Z,78.50
2023-04-14T19:40:05.752Z,79.05
2023-04-14T19:42:32.494Z,78.70
2023-04-14T19:44:59.458Z,79.33
2023-04-14T19:47:26.077Z,79.07
2023-04-14T19:49:53.492Z,78.93
2023-04-14T19:52:20.140Z,79.31
2023-04-14T19:54:46.960Z,79.16
2023-04-14T19:57:13.605Z,79.88
2023-04-14T19:59:40.421Z,79.86
2023-04-14T20:02:06.933Z,79.88
2023-04-14T20:04:33.602Z,80.27
2023-04-14T20:07:00.152Z,80.28
2023-04-14T20:09:28.548Z,80.39
2023-04-14T20:11:59.302Z,79.99
2023-04-14T20:14:25.778Z,80.53
2023-04-14T20:16:52.422Z,79.90
2023-04-14T20:19:18.983Z,80.72
2023-04-14T20:21:45.541Z,79.92
2023-04-14T20:24:12.473Z,81.15
2023-04-14T20:26:38.890Z,80.30
2023-04-14T20:29:05.246Z,80.46
2023-04-14T20:31:31.628Z,80.57
2023-04-14T20:33:58.029Z,80.90
2023-04-14T20:36:24.512Z,80.40
2023-04-14T20:38:51.092Z,81.21
2023-04-14T20:41:17.386Z,81.49
2023-04-14T20:43:43.783Z,80.90
2023-04-14T20:46:10.249Z,80.62
2023-04-14T20:48:36.760Z,81.64
2023-04-14T20:51:03.465Z,81.73
2023-04-14T20:53:29.779Z,80.86
2023-04-14T20:55:56.070Z,80.38
2023-04-14T20:58:22.652Z,80.23
2023-04-14T21:00:49.452Z,80.23
2023-04-14T21:03:15.977Z,80.45
2023-04-14T21:05:42.490Z,80.79
2023-04-14T21:08:08.992Z,80.64
2023-04-14T21:10:35.249Z,80.35
2023-04-14T21:15:31.486Z,80.35
2023-04-14T21:15:56.354Z,80.30
2023-04-14T21:18:23.616Z,80.64
2023-04-14T21:20:49.990Z,80.01
2023-04-14T21:23:16.785Z,79.33
2023-04-14T21:25:43.261Z,79.73
2023-04-14T21:28:09.563Z,78.88
2023-04-14T21:30:36.395Z,78.90
2023-04-14T21:33:03.793Z,78.92
2023-04-14T21:35:31.735Z,79.79
2023-04-14T21:37:58.273Z,79.75
2023-04-14T21:40:24.653Z,78.92
2023-04-14T21:42:50.927Z,79.19
2023-04-14T21:45:17.436Z,78.86
2023-04-14T21:47:44.199Z,78.68
2023-04-14T21:50:10.558Z,78.61
2023-04-14T21:52:36.940Z,78.70
2023-04-14T21:55:04.057Z,78.67
2023-04-14T21:57:42.932Z,78.85
2023-04-14T22:00:16.047Z,78.96
2023-04-14T22:02:45.892Z,78.82
2023-04-14T22:05:13.083Z,78.65
2023-04-14T22:07:39.535Z,78.81
2023-04-14T22:10:06.552Z,79.22
2023-04-14T22:12:33.289Z,79.00
2023-04-14T22:15:00.394Z,78.93
2023-04-14T22:17:26.847Z,79.14
2023-04-14T22:19:53.136Z,79.92
2023-04-14T22:22:19.549Z,80.00
2023-04-14T22:24:45.813Z,79.95
2023-04-14T22:27:12.066Z,79.96
2023-04-14T22:29:38.382Z,80.00
2023-04-14T22:32:04.732Z,79.96
2023-04-14T22:34:30.983Z,80.54
2023-04-14T22:36:57.438Z,80.35
2023-04-14T22:39:23.868Z,80.03
2023-04-14T22:41:50.100Z,79.92
2023-04-14T22:44:16.949Z,80.26
2023-04-14T22:46:43.332Z,80.29
2023-04-14T22:49:09.698Z,79.78
2023-04-14T22:51:35.935Z,79.87
2023-04-14T22:54:02.431Z,80.15
2023-04-14T22:56:28.713Z,80.66
2023-04-14T22:58:58.309Z,80.55
2023-04-14T23:01:25.067Z,81.22
2023-04-14T23:03:51.476Z,81.24
2023-04-14T23:06:18.706Z,81.41
2023-04-14T23:08:46.047Z,82.12
2023-04-14T23:11:12.394Z,81.42
2023-04-14T23:13:38.757Z,82.28
2023-04-14T23:16:05.389Z,81.59
2023-04-14T23:18:31.637Z,82.25
2023-04-14T23:20:57.936Z,82.42
2023-04-14T23:23:24.338Z,82.42
2023-04-14T23:25:50.701Z,82.94
2023-04-14T23:28:17.140Z,82.15
2023-04-14T23:30:43.419Z,83.03
2023-04-14T23:33:09.957Z,82.98
2023-04-14T23:35:36.334Z,82.43
2023-04-14T23:38:02.623Z,82.12
2023-04-14T23:40:29.953Z,82.23
2023-04-14T23:42:56.291Z,82.03
2023-04-14T23:45:22.665Z,82.11
2023-04-14T23:47:48.998Z,82.21
2023-04-14T23:50:15.367Z,82.37
2023-04-14T23:52:42.103Z,82.73
2023-04-14T23:55:08.586Z,83.05
2023-04-14T23:57:35.014Z,82.49
